sensor_id;sensor_type;location;lat;lon;timestamp;pressure;altitude;pressure_sealevel;temperature;humidity
37648;BME280;23490;53.656;10.076;2023-03-23T00:01:23;99042.16;;;-145.95;100.00
37648;BME280;23490;53.656;10.076;2023-03-23T00:03:52;99046.28;;;-145.95;100.00
37648;BME280;23490;53.656;10.076;2023-03-23T00:06:19;99058.69;;;-145.95;100.00
37648;BME280;23490;53.656;10.076;2023-03-23T00:08:47;99015.31;;;-145.95;100.00
37648;BME280;23490;53.656;10.076;2023-03-23T00:11:16;99112.38;;;-145.95;100.00
37648;BME280;23490;53.656;10.076;2023-03-23T00:13:43;99058.69;;;-145.95;100.00
37648;BME280;23490;53.656;10.076;2023-03-23T00:16:11;99066.94;;;-145.95;100.00
37648;BME280;23490;53.656;10.076;2023-03-23T00:18:54;99083.47;;;-145.95;100.00
37648;BME280;23490;53.656;10.076;2023-03-23T00:21:21;99097.91;;;-145.95;100.00
37648;BME280;23490;53.656;10.076;2023-03-23T00:23:51;99095.84;;;-145.95;100.00
37648;BME280;23490;53.656;10.076;2023-03-23T00:26:17;99114.44;;;-145.95;100.00
37648;BME280;23490;53.656;10.076;2023-03-23T00:28:43;99071.06;;;-145.95;100.00
37648;BME280;23490;53.656;10.076;2023-03-23T00:31:12;99099.97;;;-145.95;100.00
37648;BME280;23490;53.656;10.076;2023-03-23T00:33:38;99108.25;;;-145.95;100.00
37648;BME280;23490;53.656;10.076;2023-03-23T00:36:08;99120.63;;;-145.95;100.00
37648;BME280;23490;53.656;10.076;2023-03-23T00:38:34;99075.19;;;-145.95;100.00
37648;BME280;23490;53.656;10.076;2023-03-23T00:40:59;99104.09;;;-145.95;100.00
37648;BME280;23490;53.656;10.076;2023-03-23T00:43:28;99124.75;;;-145.95;100.00
37648;BME280;23490;53.656;10.076;2023-03-23T00:45:55;99118.56;;;-145.95;100.00
37648;BME280;23490;53.656;10.076;2023-03-23T00:48:24;99149.53;;;-145.95;100.00
37648;BME280;23490;53.656;10.076;2023-03-23T00:50:50;99108.25;;;-145.95;100.00
37648;BME280;23490;53.656;10.076;2023-03-23T00:53:16;99112.38;;;-145.95;100.00
37648;BME280;23490;53.656;10.076;2023-03-23T00:55:43;99083.47;;;-145.95;100.00
37648;BME280;23490;53.656;10.076;2023-03-23T00:58:09;99087.59;;;-145.95;100.00
37648;BME280;23490;53.656;10.076;2023-03-23T01:00:35;99137.16;;;-145.95;100.00
37648;BME280;23490;53.656;10.076;2023-03-23T01:03:01;99116.50;;;-145.95;100.00
37648;BME280;23490;53.656;10.076;2023-03-23T01:05:26;99087.59;;;-145.95;100.00
37648;BME280;23490;53.656;10.076;2023-03-23T01:07:58;99095.84;;;-145.95;100.00
37648;BME280;23490;53.656;10.076;2023-03-23T01:10:24;99120.63;;;-145.95;100.00
37648;BME280;23490;53.656;10.076;2023-03-23T01:12:51;99122.69;;;-145.95;100.00
37648;BME280;23490;53.656;10.076;2023-03-23T01:15:18;99114.44;;;-145.95;100.00
37648;BME280;23490;53.656;10.076;2023-03-23T01:17:45;99137.16;;;-145.95;100.00
37648;BME280;23490;53.656;10.076;2023-03-23T01:20:13;99108.25;;;-145.95;100.00
37648;BME280;23490;53.656;10.076;2023-03-23T01:22:40;99104.09;;;-145.95;100.00
37648;BME280;23490;53.656;10.076;2023-03-23T01:25:06;99071.06;;;-145.95;100.00
37648;BME280;23490;53.656;10.076;2023-03-23T01:27:31;99153.66;;;-145.95;100.00
37648;BME280;23490;53.656;10.076;2023-03-23T01:29:57;99141.28;;;-145.95;100.00
37648;BME280;23490;53.656;10.076;2023-03-23T01:32:22;99128.88;;;-145.95;100.00
37648;BME280;23490;53.656;10.076;2023-03-23T01:34:47;99104.09;;;-145.95;100.00
37648;BME280;23490;53.656;10.076;2023-03-23T01:37:13;99137.16;;;-145.95;100.00
37648;BME280;23490;53.656;10.076;2023-03-23T01:39:38;99099.97;;;-145.95;100.00
37648;BME280;23490;53.656;10.076;2023-03-23T01:42:04;99083.47;;;-145.95;100.00
37648;BME280;23490;53.656;10.076;2023-03-23T01:46:55;99116.50;;;-145.95;100.00
37648;BME280;23490;53.656;10.076;2023-03-23T01:49:24;99149.53;;;-145.95;100.00
37648;BME280;23490;53.656;10.076;2023-03-23T01:51:58;99110.31;;;-145.95;100.00
37648;BME280;23490;53.656;10.076;2023-03-23T01:54:26;99116.50;;;-145.95;100.00
37648;BME280;23490;53.656;10.076;2023-03-23T01:57:01;99091.72;;;-145.95;100.00
37648;BME280;23490;53.656;10.076;2023-03-23T01:59:28;99149.53;;;-145.95;100.00
37648;BME280;23490;53.656;10.076;2023-03-23T02:01:55;99124.75;;;-145.95;100.00
37648;BME280;23490;53.656;10.076;2023-03-23T02:04:22;99186.72;;;-145.95;100.00
37648;BME280;23490;53.656;10.076;2023-03-23T02:06:48;99126.81;;;-145.95;100.00
37648;BME280;23490;53.656;10.076;2023-03-23T02:09:14;99147.47;;;-145.95;100.00
37648;BME280;23490;53.656;10.076;2023-03-23T02:11:43;99161.94;;;-145.95;100.00
37648;BME280;23490;53.656;10.076;2023-03-23T02:14:10;99104.09;;;-145.95;100.00
37648;BME280;23490;53.656;10.076;2023-03-23T02:25:58;99145.41;;;-145.95;100.00
37648;BME280;23490;53.656;10.076;2023-03-23T02:29:03;99137.16;;;-145.95;100.00
37648;BME280;23490;53.656;10.076;2023-03-23T02:31:47;99116.50;;;-145.95;100.00
37648;BME280;23490;53.656;10.076;2023-03-23T02:34:26;99178.44;;;-145.95;100.00
37648;BME280;23490;53.656;10.076;2023-03-23T02:37:24;99120.63;;;-145.95;100.00
37648;BME280;23490;53.656;10.076;2023-03-23T02:39:56;99166.06;;;-145.95;100.00
37648;BME280;23490;53.656;10.076;2023-03-23T02:42:28;99164.00;;;-145.95;100.00
37648;BME280;23490;53.656;10.076;2023-03-23T02:44:58;99153.66;;;-145.95;100.00
37648;BME280;23490;53.656;10.076;2023-03-23T02:47:29;99166.06;;;-145.95;100.00
37648;BME280;23490;53.656;10.076;2023-03-23T02:49:56;99161.94;;;-145.95;100.00
37648;BME280;23490;53.656;10.076;2023-03-23T02:52:25;99166.06;;;-145.95;100.00
37648;BME280;23490;53.656;10.076;2023-03-23T02:54:52;99145.41;;;-145.95;100.00
37648;BME280;23490;53.656;10.076;2023-03-23T02:57:20;99157.81;;;-145.95;100.00
37648;BME280;23490;53.656;10.076;2023-03-23T02:59:46;99124.75;;;-145.95;100.00
37648;BME280;23490;53.656;10.076;2023-03-23T03:02:21;99071.06;;;-145.95;100.00
37648;BME280;23490;53.656;10.076;2023-03-23T03:05:00;99139.22;;;-145.95;100.00
37648;BME280;23490;53.656;10.076;2023-03-23T03:07:56;99192.91;;;-145.95;100.00
37648;BME280;23490;53.656;10.076;2023-03-23T03:13:05;99135.09;;;-145.95;100.00
37648;BME280;23490;53.656;10.076;2023-03-23T03:15:51;99137.16;;;-145.95;100.00
37648;BME280;23490;53.656;10.076;2023-03-23T03:18:18;99133.03;;;-145.95;100.00
37648;BME280;23490;53.656;10.076;2023-03-23T03:20:54;99149.53;;;-145.95;100.00
37648;BME280;23490;53.656;10.076;2023-03-23T03:23:22;99151.59;;;-145.95;100.00
37648;BME280;23490;53.656;10.076;2023-03-23T03:25:50;99124.75;;;-145.95;100.00
37648;BME280;23490;53.656;10.076;2023-03-23T03:28:20;99112.38;;;-145.95;100.00
37648;BME280;23490;53.656;10.076;2023-03-23T03:30:53;99137.16;;;-145.95;100.00
37648;BME280;23490;53.656;10.076;2023-03-23T03:33:22;99124.75;;;-145.95;100.00
37648;BME280;23490;53.656;10.076;2023-03-23T03:35:54;99133.03;;;-145.95;100.00
37648;BME280;23490;53.656;10.076;2023-03-23T03:38:20;99137.16;;;-145.95;100.00
37648;BME280;23490;53.656;10.076;2023-03-23T03:40:46;99116.50;;;-145.95;100.00
37648;BME280;23490;53.656;10.076;2023-03-23T03:43:11;99122.69;;;-145.95;100.00
37648;BME280;23490;53.656;10.076;2023-03-23T03:45:36;99153.66;;;-145.95;100.00
37648;BME280;23490;53.656;10.076;2023-03-23T03:48:02;99116.50;;;-145.95;100.00
37648;BME280;23490;53.656;10.076;2023-03-23T03:50:28;99120.63;;;-145.95;100.00
37648;BME280;23490;53.656;10.076;2023-03-23T03:52:53;99120.63;;;-145.95;100.00
37648;BME280;23490;53.656;10.076;2023-03-23T03:55:19;99128.88;;;-145.95;100.00
37648;BME280;23490;53.656;10.076;2023-03-23T03:57:44;99116.50;;;-145.95;100.00
37648;BME280;23490;53.656;10.076;2023-03-23T04:00:10;99120.63;;;-145.95;100.00
37648;BME280;23490;53.656;10.076;2023-03-23T04:02:43;99114.44;;;-145.95;100.00
37648;BME280;23490;53.656;10.076;2023-03-23T04:05:09;99095.84;;;-145.95;100.00
37648;BME280;23490;53.656;10.076;2023-03-23T04:07:36;99155.72;;;-145.95;100.00
37648;BME280;23490;53.656;10.076;2023-03-23T04:10:05;99108.25;;;-145.95;100.00
37648;BME280;23490;53.656;10.076;2023-03-23T04:12:31;99110.31;;;-145.95;100.00
37648;BME280;23490;53.656;10.076;2023-03-23T04:14:57;99062.81;;;-145.95;100.00
37648;BME280;23490;53.656;10.076;2023-03-23T04:17:24;99106.16;;;-145.95;100.00
37648;BME280;23490;53.656;10.076;2023-03-23T04:19:52;99116.50;;;-145.95;100.00
37648;BME280;23490;53.656;10.076;2023-03-23T04:22:17;99108.25;;;-145.95;100.00
37648;BME280;23490;53.656;10.076;2023-03-23T04:24:43;99093.78;;;-145.95;100.00
37648;BME280;23490;53.656;10.076;2023-03-23T04:27:09;99108.25;;;-145.95;100.00
37648;BME280;23490;53.656;10.076;2023-03-23T04:29:34;99095.84;;;-145.95;100.00
37648;BME280;23490;53.656;10.076;2023-03-23T04:32:00;99079.34;;;-145.95;100.00
37648;BME280;23490;53.656;10.076;2023-03-23T04:34:26;99108.25;;;-145.95;100.00
37648;BME280;23490;53.656;10.076;2023-03-23T04:36:53;99079.34;;;-145.95;100.00
37648;BME280;23490;53.656;10.076;2023-03-23T04:39:19;99087.59;;;-145.95;100.00
37648;BME280;23490;53.656;10.076;2023-03-23T04:41:44;99048.34;;;-145.95;100.00
37648;BME280;23490;53.656;10.076;2023-03-23T04:44:10;99108.25;;;-145.95;100.00
37648;BME280;23490;53.656;10.076;2023-03-23T04:46:36;99091.72;;;-145.95;100.00
37648;BME280;23490;53.656;10.076;2023-03-23T04:49:02;99091.72;;;-145.95;100.00
37648;BME280;23490;53.656;10.076;2023-03-23T04:51:28;99116.50;;;-145.95;100.00
37648;BME280;23490;53.656;10.076;2023-03-23T04:53:54;99091.72;;;-145.95;100.00
37648;BME280;23490;53.656;10.076;2023-03-23T04:56:20;99120.63;;;-145.95;100.00
37648;BME280;23490;53.656;10.076;2023-03-23T04:58:47;99112.38;;;-145.95;100.00
37648;BME280;23490;53.656;10.076;2023-03-23T05:01:13;99126.81;;;-145.95;100.00
37648;BME280;23490;53.656;10.076;2023-03-23T05:03:42;99075.19;;;-145.95;100.00
37648;BME280;23490;53.656;10.076;2023-03-23T05:06:08;99095.84;;;-145.95;100.00
37648;BME280;23490;53.656;10.076;2023-03-23T05:08:34;99083.47;;;-145.95;100.00
37648;BME280;23490;53.656;10.076;2023-03-23T05:11:00;99120.63;;;-145.95;100.00
37648;BME280;23490;53.656;10.076;2023-03-23T05:13:27;99075.19;;;-145.95;100.00
37648;BME280;23490;53.656;10.076;2023-03-23T05:15:53;99087.59;;;-145.95;100.00
37648;BME280;23490;53.656;10.076;2023-03-23T05:18:18;99099.97;;;-145.95;100.00
37648;BME280;23490;53.656;10.076;2023-03-23T05:20:45;99141.28;;;-145.95;100.00
37648;BME280;23490;53.656;10.076;2023-03-23T05:23:11;99093.78;;;-145.95;100.00
37648;BME280;23490;53.656;10.076;2023-03-23T05:25:38;99095.84;;;-145.95;100.00
37648;BME280;23490;53.656;10.076;2023-03-23T05:28:11;99044.22;;;-145.95;100.00
37648;BME280;23490;53.656;10.076;2023-03-23T05:30:38;99062.81;;;-145.95;100.00
37648;BME280;23490;53.656;10.076;2023-03-23T05:33:04;99083.47;;;-145.95;100.00
37648;BME280;23490;53.656;10.076;2023-03-23T05:35:30;99114.44;;;-145.95;100.00
37648;BME280;23490;53.656;10.076;2023-03-23T05:37:55;99099.97;;;-145.95;100.00
37648;BME280;23490;53.656;10.076;2023-03-23T05:40:22;99069.00;;;-145.95;100.00
37648;BME280;23490;53.656;10.076;2023-03-23T05:42:48;99071.06;;;-145.95;100.00
37648;BME280;23490;53.656;10.076;2023-03-23T05:45:14;99099.97;;;-145.95;100.00
37648;BME280;23490;53.656;10.076;2023-03-23T05:47:40;99095.84;;;-145.95;100.00
37648;BME280;23490;53.656;10.076;2023-03-23T05:50:07;99083.47;;;-145.95;100.00
37648;BME280;23490;53.656;10.076;2023-03-23T05:52:34;99079.34;;;-145.95;100.00
37648;BME280;23490;53.656;10.076;2023-03-23T05:55:00;99071.06;;;-145.95;100.00
37648;BME280;23490;53.656;10.076;2023-03-23T05:57:26;99114.44;;;-145.95;100.00
37648;BME280;23490;53.656;10.076;2023-03-23T05:59:52;99087.59;;;-145.95;100.00
37648;BME280;23490;53.656;10.076;2023-03-23T06:02:17;99091.72;;;-145.95;100.00
37648;BME280;23490;53.656;10.076;2023-03-23T06:04:43;99106.16;;;-145.95;100.00
37648;BME280;23490;53.656;10.076;2023-03-23T06:07:10;99083.47;;;-145.95;100.00
37648;BME280;23490;53.656;10.076;2023-03-23T06:09:40;99071.06;;;-145.95;100.00
37648;BME280;23490;53.656;10.076;2023-03-23T06:12:06;99087.59;;;-145.95;100.00
37648;BME280;23490;53.656;10.076;2023-03-23T06:14:32;99071.06;;;-145.95;100.00
37648;BME280;23490;53.656;10.076;2023-03-23T06:16:58;99083.47;;;-145.95;100.00
37648;BME280;23490;53.656;10.076;2023-03-23T06:19:23;99116.50;;;-145.95;100.00
37648;BME280;23490;53.656;10.076;2023-03-23T06:21:52;99095.84;;;-145.95;100.00
37648;BME280;23490;53.656;10.076;2023-03-23T06:24:19;99124.75;;;-145.95;100.00
37648;BME280;23490;53.656;10.076;2023-03-23T06:26:46;99122.69;;;-145.95;100.00
37648;BME280;23490;53.656;10.076;2023-03-23T06:29:11;99133.03;;;-145.95;100.00
37648;BME280;23490;53.656;10.076;2023-03-23T06:31:42;99091.72;;;-145.95;100.00
37648;BME280;23490;53.656;10.076;2023-03-23T06:34:08;99099.97;;;-145.95;100.00
37648;BME280;23490;53.656;10.076;2023-03-23T06:36:35;99089.66;;;-145.95;100.00
37648;BME280;23490;53.656;10.076;2023-03-23T06:39:02;99083.47;;;-145.95;100.00
37648;BME280;23490;53.656;10.076;2023-03-23T06:41:29;99066.94;;;-145.95;100.00
37648;BME280;23490;53.656;10.076;2023-03-23T06:43:55;99038.03;;;-145.95;100.00
37648;BME280;23490;53.656;10.076;2023-03-23T06:46:20;99071.06;;;-145.95;100.00
37648;BME280;23490;53.656;10.076;2023-03-23T06:48:46;99058.69;;;-145.95;100.00
37648;BME280;23490;53.656;10.076;2023-03-23T06:51:14;99038.03;;;-145.95;100.00
37648;BME280;23490;53.656;10.076;2023-03-23T06:53:39;99042.16;;;-145.95;100.00
37648;BME280;23490;53.656;10.076;2023-03-23T06:56:06;99029.78;;;-145.95;100.00
37648;BME280;23490;53.656;10.076;2023-03-23T06:58:32;99038.03;;;-145.95;100.00
37648;BME280;23490;53.656;10.076;2023-03-23T07:00:57;99029.78;;;-145.95;100.00
37648;BME280;23490;53.656;10.076;2023-03-23T07:03:24;99029.78;;;-145.95;100.00
37648;BME280;23490;53.656;10.076;2023-03-23T07:05:49;99005.00;;;-145.95;100.00
37648;BME280;23490;53.656;10.076;2023-03-23T07:08:15;99007.06;;;-145.95;100.00
37648;BME280;23490;53.656;10.076;2023-03-23T07:10:41;98994.66;;;-145.95;100.00
37648;BME280;23490;53.656;10.076;2023-03-23T07:13:07;99013.25;;;-145.95;100.00
37648;BME280;23490;53.656;10.076;2023-03-23T07:15:32;99050.41;;;-145.95;100.00
37648;BME280;23490;53.656;10.076;2023-03-23T07:17:58;99005.00;;;-145.95;100.00
37648;BME280;23490;53.656;10.076;2023-03-23T07:20:23;98984.34;;;-145.95;100.00
37648;BME280;23490;53.656;10.076;2023-03-23T07:22:50;99005.00;;;-145.95;100.00
37648;BME280;23490;53.656;10.076;2023-03-23T07:25:16;98996.72;;;-145.95;100.00
37648;BME280;23490;53.656;10.076;2023-03-23T07:27:44;98992.59;;;-145.95;100.00
37648;BME280;23490;53.656;10.076;2023-03-23T07:30:10;98980.22;;;-145.95;100.00
37648;BME280;23490;53.656;10.076;2023-03-23T07:32:36;98982.28;;;-145.95;100.00
37648;BME280;23490;53.656;10.076;2023-03-23T07:35:02;98922.41;;;-145.95;100.00
37648;BME280;23490;53.656;10.076;2023-03-23T07:37:28;98963.69;;;-145.95;100.00
37648;BME280;23490;53.656;10.076;2023-03-23T07:39:54;98922.41;;;-145.95;100.00
37648;BME280;23490;53.656;10.076;2023-03-23T07:42:20;98976.09;;;-145.95;100.00
37648;BME280;23490;53.656;10.076;2023-03-23T07:44:45;98967.81;;;-145.95;100.00
37648;BME280;23490;53.656;10.076;2023-03-23T07:47:11;98988.47;;;-145.95;100.00
37648;BME280;23490;53.656;10.076;2023-03-23T07:49:36;98971.94;;;-145.95;100.00
37648;BME280;23490;53.656;10.076;2023-03-23T07:52:02;98984.34;;;-145.95;100.00
37648;BME280;23490;53.656;10.076;2023-03-23T07:54:28;99027.69;;;-145.95;100.00
37648;BME280;23490;53.656;10.076;2023-03-23T07:56:53;99046.28;;;-145.95;100.00
37648;BME280;23490;53.656;10.076;2023-03-23T07:59:18;99021.50;;;-145.95;100.00
37648;BME280;23490;53.656;10.076;2023-03-23T08:01:44;99038.03;;;-145.95;100.00
37648;BME280;23490;53.656;10.076;2023-03-23T08:04:09;99038.03;;;-145.95;100.00
37648;BME280;23490;53.656;10.076;2023-03-23T08:06:35;99056.63;;;-145.95;100.00
37648;BME280;23490;53.656;10.076;2023-03-23T08:09:01;99071.06;;;-145.95;100.00
37648;BME280;23490;53.656;10.076;2023-03-23T08:11:28;99108.25;;;-145.95;100.00
37648;BME280;23490;53.656;10.076;2023-03-23T08:13:53;99135.09;;;-145.95;100.00
37648;BME280;23490;53.656;10.076;2023-03-23T08:16:19;99174.31;;;-145.95;100.00
37648;BME280;23490;53.656;10.076;2023-03-23T08:18:45;99186.72;;;-145.95;100.00
37648;BME280;23490;53.656;10.076;2023-03-23T08:21:11;99207.38;;;-145.95;100.00
37648;BME280;23490;53.656;10.076;2023-03-23T08:23:37;99166.06;;;-145.95;100.00
37648;BME280;23490;53.656;10.076;2023-03-23T08:26:04;99228.00;;;-145.95;100.00
37648;BME280;23490;53.656;10.076;2023-03-23T08:28:31;99232.16;;;-145.95;100.00
37648;BME280;23490;53.656;10.076;2023-03-23T08:30:57;99213.56;;;-145.95;100.00
37648;BME280;23490;53.656;10.076;2023-03-23T08:33:22;99207.38;;;-145.95;100.00
37648;BME280;23490;53.656;10.076;2023-03-23T08:35:58;99174.31;;;-145.95;100.00
37648;BME280;23490;53.656;10.076;2023-03-23T08:38:24;99215.63;;;-145.95;100.00
37648;BME280;23490;53.656;10.076;2023-03-23T08:40:50;99203.22;;;-145.95;100.00
37648;BME280;23490;53.656;10.076;2023-03-23T08:43:18;99186.72;;;-145.95;100.00
37648;BME280;23490;53.656;10.076;2023-03-23T08:45:43;99199.09;;;-145.95;100.00
37648;BME280;23490;53.656;10.076;2023-03-23T08:48:10;99161.94;;;-145.95;100.00
37648;BME280;23490;53.656;10.076;2023-03-23T08:50:36;99166.06;;;-145.95;100.00
37648;BME280;23490;53.656;10.076;2023-03-23T08:53:01;99095.84;;;-145.95;100.00
37648;BME280;23490;53.656;10.076;2023-03-23T08:55:28;99058.69;;;-145.95;100.00
37648;BME280;23490;53.656;10.076;2023-03-23T08:57:54;98971.94;;;-145.95;100.00
37648;BME280;23490;53.656;10.076;2023-03-23T09:00:20;98951.31;;;-145.95;100.00
37648;BME280;23490;53.656;10.076;2023-03-23T09:02:50;98992.59;;;-145.95;100.00
37648;BME280;23490;53.656;10.076;2023-03-23T09:05:20;99000.84;;;-145.95;100.00
37648;BME280;23490;53.656;10.076;2023-03-23T09:07:48;98963.69;;;-145.95;100.00
37648;BME280;23490;53.656;10.076;2023-03-23T09:10:14;98943.03;;;-145.95;100.00
37648;BME280;23490;53.656;10.076;2023-03-23T09:12:41;98930.66;;;-145.95;100.00
37648;BME280;23490;53.656;10.076;2023-03-23T09:15:08;98959.56;;;-145.95;100.00
37648;BME280;23490;53.656;10.076;2023-03-23T09:17:43;98951.31;;;-145.95;100.00
37648;BME280;23490;53.656;10.076;2023-03-23T09:20:11;98963.69;;;-145.95;100.00
37648;BME280;23490;53.656;10.076;2023-03-23T09:22:45;98934.78;;;-145.95;100.00
37648;BME280;23490;53.656;10.076;2023-03-23T09:25:15;98938.91;;;-145.95;100.00
37648;BME280;23490;53.656;10.076;2023-03-23T09:27:42;98910.00;;;-145.95;100.00
37648;BME280;23490;53.656;10.076;2023-03-23T09:30:11;98914.13;;;-145.95;100.00
37648;BME280;23490;53.656;10.076;2023-03-23T09:32:38;98905.88;;;-145.95;100.00
37648;BME280;23490;53.656;10.076;2023-03-23T09:35:07;98980.22;;;-145.95;100.00
37648;BME280;23490;53.656;10.076;2023-03-23T09:37:34;98938.91;;;-145.95;100.00
37648;BME280;23490;53.656;10.076;2023-03-23T09:40:04;98910.00;;;-145.95;100.00
37648;BME280;23490;53.656;10.076;2023-03-23T09:51:17;98810.88;;;-145.95;100.00
37648;BME280;23490;53.656;10.076;2023-03-23T09:53:45;98810.88;;;-145.95;99.52
37648;BME280;23490;53.656;10.076;2023-03-23T09:56:15;98761.34;;;-145.95;98.44
37648;BME280;23490;53.656;10.076;2023-03-23T09:58:50;98709.72;;;-145.95;95.69
37648;BME280;23490;53.656;10.076;2023-03-23T10:01:21;98707.66;;;-145.95;95.06
37648;BME280;23490;53.656;10.076;2023-03-23T10:03:53;98687.00;;;-145.95;92.75
37648;BME280;23490;53.656;10.076;2023-03-23T10:06:21;98707.66;;;-145.95;96.23
37648;BME280;23490;53.656;10.076;2023-03-23T10:08:50;98707.66;;;-145.95;94.67
37648;BME280;23490;53.656;10.076;2023-03-23T10:11:43;98786.09;;;-145.95;93.80
37648;BME280;23490;53.656;10.076;2023-03-23T10:14:30;98808.81;;;-145.95;94.08
37648;BME280;23490;53.656;10.076;2023-03-23T10:17:13;98761.34;;;-145.95;93.10
37648;BME280;23490;53.656;10.076;2023-03-23T10:19:47;98757.19;;;-145.95;93.96
37648;BME280;23490;53.656;10.076;2023-03-23T10:22:18;98682.88;;;-145.95;92.41
37648;BME280;23490;53.656;10.076;2023-03-23T10:25:16;98670.47;;;-145.95;92.25
37648;BME280;23490;53.656;10.076;2023-03-23T10:27:45;98674.59;;;-145.95;90.12
37648;BME280;23490;53.656;10.076;2023-03-23T10:30:24;98596.16;;;-145.95;90.70
37648;BME280;23490;53.656;10.076;2023-03-23T10:35:43;98587.88;;;-145.95;87.99
37648;BME280;23490;53.656;10.076;2023-03-23T10:38:14;98563.13;;;-145.95;86.76
37648;BME280;23490;53.656;10.076;2023-03-23T10:40:54;98455.75;;;-145.95;88.43
37648;BME280;23490;53.656;10.076;2023-03-23T10:43:22;98402.06;;;-145.95;81.84
37648;BME280;23490;53.656;10.076;2023-03-23T10:45:59;98327.75;;;-145.95;80.80
37648;BME280;23490;53.656;10.076;2023-03-23T10:48:31;98360.78;;;-145.95;79.05
37648;BME280;23490;53.656;10.076;2023-03-23T10:51:02;98449.56;;;-145.95;79.56
37648;BME280;23490;53.656;10.076;2023-03-23T10:53:38;98530.06;;;-145.95;78.21
37648;BME280;23490;53.656;10.076;2023-03-23T10:56:05;98635.38;;;-145.95;82.83
37648;BME280;23490;53.656;10.076;2023-03-23T10:58:45;98604.41;;;-145.95;83.94
37648;BME280;23490;53.656;10.076;2023-03-23T11:01:12;98697.31;;;-145.95;83.23
37648;BME280;23490;53.656;10.076;2023-03-23T11:03:45;98649.84;;;-145.95;85.17
37648;BME280;23490;53.656;10.076;2023-03-23T11:06:23;98703.53;;;-145.95;84.74
37648;BME280;23490;53.656;10.076;2023-03-23T11:08:55;98687.00;;;-145.95;83.85
37648;BME280;23490;53.656;10.076;2023-03-23T11:11:30;98674.59;;;-145.95;83.67
37648;BME280;23490;53.656;10.076;2023-03-23T11:14:02;98680.81;;;-145.95;84.19
37648;BME280;23490;53.656;10.076;2023-03-23T11:16:31;98674.59;;;-145.95;84.81
37648;BME280;23490;53.656;10.076;2023-03-23T11:18:59;98658.09;;;-145.95;87.79
37648;BME280;23490;53.656;10.076;2023-03-23T11:21:26;98633.31;;;-145.95;84.49
37648;BME280;23490;53.656;10.076;2023-03-23T11:23:58;98627.13;;;-145.95;82.11
37648;BME280;23490;53.656;10.076;2023-03-23T11:26:30;98585.81;;;-145.95;83.05
37648;BME280;23490;53.656;10.076;2023-03-23T11:31:45;98577.56;;;-145.95;79.11
37648;BME280;23490;53.656;10.076;2023-03-23T11:34:34;98592.03;;;-145.95;79.00
37648;BME280;23490;53.656;10.076;2023-03-23T11:37:07;98608.53;;;-145.95;79.32
37648;BME280;23490;53.656;10.076;2023-03-23T11:39:46;98629.19;;;-145.95;76.10
37648;BME280;23490;53.656;10.076;2023-03-23T11:42:23;98484.66;;;-145.95;73.55
37648;BME280;23490;53.656;10.076;2023-03-23T11:44:54;98538.34;;;-145.95;71.71
37648;BME280;23490;53.656;10.076;2023-03-23T11:47:30;98575.50;;;-145.95;71.24
37648;BME280;23490;53.656;10.076;2023-03-23T11:50:16;98530.06;;;-145.95;73.26
37648;BME280;23490;53.656;10.076;2023-03-23T11:52:50;98466.06;;;-145.95;69.58
37648;BME280;23490;53.656;10.076;2023-03-23T11:55:26;98313.28;;;-145.95;67.58
37648;BME280;23490;53.656;10.076;2023-03-23T11:58:00;98443.38;;;-145.95;65.07
37648;BME280;23490;53.656;10.076;2023-03-23T12:00:26;98513.56;;;-145.95;65.61
37648;BME280;23490;53.656;10.076;2023-03-23T12:06:06;98614.72;;;-145.95;70.61
37648;BME280;23490;53.656;10.076;2023-03-23T12:14:19;98732.44;;;-145.95;73.53
37648;BME280;23490;53.656;10.076;2023-03-23T12:22:18;98746.88;;;-145.95;83.64
37648;BME280;23490;53.656;10.076;2023-03-23T12:25:30;98691.13;;;-145.95;86.49
37648;BME280;23490;53.656;10.076;2023-03-23T12:31:03;98757.19;;;-145.95;89.56
37648;BME280;23490;53.656;10.076;2023-03-23T12:36:41;98703.53;;;-145.95;91.20
37648;BME280;23490;53.656;10.076;2023-03-23T12:42:18;98769.59;;;-145.95;86.61
37648;BME280;23490;53.656;10.076;2023-03-23T12:44:53;98769.59;;;-145.95;87.91
37648;BME280;23490;53.656;10.076;2023-03-23T12:47:34;98730.34;;;-145.95;88.01
37648;BME280;23490;53.656;10.076;2023-03-23T12:52:54;98736.56;;;-145.95;88.79
37648;BME280;23490;53.656;10.076;2023-03-23T12:58:02;98711.78;;;-145.95;86.27
37648;BME280;23490;53.656;10.076;2023-03-23T13:00:46;98728.28;;;-145.95;89.05
37648;BME280;23490;53.656;10.076;2023-03-23T13:03:22;98753.06;;;-145.95;88.68
37648;BME280;23490;53.656;10.076;2023-03-23T13:06:07;98748.94;;;-145.95;89.50
37648;BME280;23490;53.656;10.076;2023-03-23T13:08:41;98154.31;;;-145.95;88.99
37648;BME280;23490;53.656;10.076;2023-03-23T13:11:33;98164.66;;;-145.95;82.83
37648;BME280;23490;53.656;10.076;2023-03-23T13:14:07;98030.47;;;-145.95;79.17
37648;BME280;23490;53.656;10.076;2023-03-23T13:22:59;97873.56;;;-145.95;76.68
37648;BME280;23490;53.656;10.076;2023-03-23T13:28:21;97471.06;;;-145.95;63.96
37648;BME280;23490;53.656;10.076;2023-03-23T13:33:32;98040.78;;;-145.95;64.14
37648;BME280;23490;53.656;10.076;2023-03-23T13:39:02;98290.59;;;-145.95;69.99
37648;BME280;23490;53.656;10.076;2023-03-23T13:41:29;98375.22;;;-145.95;70.76
37648;BME280;23490;53.656;10.076;2023-03-23T13:44:15;98455.75;;;-145.95;72.24
37648;BME280;23490;53.656;10.076;2023-03-23T13:46:41;98501.19;;;-145.95;71.55